createdAt,value
2018-08-16T00:08:47.277Z,4.1
2018-08-16T00:25:37.915Z,4.1
2018-08-16T00:42:28.791Z,4.1
2018-08-16T00:59:19.418Z,4.1
2018-08-16T01:16:09.944Z,4.0
2018-08-16T01:33:00.594Z,4.0
2018-08-16T01:49:51.185Z,4.0
2018-08-16T02:06:41.660Z,4.0
2018-08-16T02:23:32.067Z,4.0
2018-08-16T02:40:22.447Z,4.0
2018-08-16T02:57:12.872Z,4.0
2018-08-16T03:14:03.237Z,4.0
2018-08-16T03:30:54.081Z,3.9
2018-08-16T03:47:44.177Z,3.9
2018-08-16T04:04:34.471Z,3.9
2018-08-16T04:21:24.767Z,3.9
2018-08-16T04:38:14.947Z,3.9
2018-08-16T04:55:05.229Z,3.9
2018-08-16T05:11:55.381Z,4.0
2018-08-16T05:28:45.600Z,4.1
2018-08-16T05:45:36.020Z,4.3
2018-08-16T06:02:27.290Z,4.5
2018-08-16T06:19:18.338Z,4.6
2018-08-16T06:36:09.681Z,4.6
2018-08-16T06:53:01.276Z,4.6
2018-08-16T07:09:52.796Z,4.6
2018-08-16T07:26:44.400Z,4.6
2018-08-16T07:43:36.026Z,4.6
2018-08-16T08:00:27.974Z,4.6
2018-08-16T08:17:19.330Z,4.6
2018-08-16T08:34:11.558Z,4.6
2018-08-16T08:51:03.294Z,4.6
2018-08-16T09:07:55.605Z,4.6
2018-08-16T09:24:48.018Z,4.6
2018-08-16T09:41:40.379Z,4.6
2018-08-16T09:58:33.265Z,4.6
2018-08-16T10:15:25.764Z,4.6
2018-08-16T10:32:18.419Z,4.6
2018-08-16T10:49:11.136Z,4.6
2018-08-16T11:06:04.175Z,4.6
2018-08-16T11:22:57.408Z,4.6
2018-08-16T11:39:51.850Z,4.6
2018-08-16T11:56:44.742Z,4.6
2018-08-16T12:13:38.397Z,4.6
2018-08-16T12:30:32.305Z,4.6
2018-08-16T12:47:26.415Z,4.6
2018-08-16T13:04:20.545Z,4.6
2018-08-16T13:21:14.728Z,4.6
2018-08-16T13:38:09.109Z,4.6
2018-08-16T13:55:03.465Z,4.6
2018-08-16T14:11:57.740Z,4.6
2018-08-16T14:28:52.061Z,4.6
2018-08-16T14:45:46.351Z,4.6
2018-08-16T15:02:40.601Z,4.6
2018-08-16T15:19:34.756Z,4.6
2018-08-16T15:36:28.796Z,4.6
2018-08-16T15:53:23.151Z,4.6
2018-08-16T16:10:17.075Z,4.6
2018-08-16T16:27:11.255Z,4.6
2018-08-16T16:44:05.374Z,4.6
2018-08-16T17:01:00.041Z,4.5
2018-08-16T17:17:53.531Z,4.5
2018-08-16T17:34:47.344Z,4.5
2018-08-16T17:51:41.159Z,4.5
2018-08-16T18:08:34.967Z,4.4
2018-08-16T18:25:28.883Z,4.4
2018-08-16T18:42:22.499Z,4.4
2018-08-16T18:59:16.407Z,4.4
2018-08-16T19:16:09.111Z,4.3
2018-08-16T19:33:02.041Z,4.3
2018-08-16T19:49:54.707Z,4.3
2018-08-16T20:06:47.767Z,4.3
2018-08-16T20:23:40.149Z,4.3
2018-08-16T20:40:32.808Z,4.2
2018-08-16T20:57:24.602Z,4.2
2018-08-16T21:14:16.103Z,4.2
2018-08-16T21:31:07.266Z,4.2
2018-08-16T21:47:58.521Z,4.2
2018-08-16T22:04:49.765Z,4.2
2018-08-16T22:21:41.138Z,4.2
2018-08-16T22:38:32.698Z,4.2
2018-08-16T22:55:24.325Z,4.2
2018-08-16T23:12:15.913Z,4.2
2018-08-16T23:29:07.476Z,4.1
2018-08-16T23:45:58.816Z,4.1
